Time;durP1;ratioP1;P1;durP2;ratioP2;P2;SDS_P1;SDS_P2;PMS_P1;PMS_P2;Temp;Humidity;BMP_temperature;BMP_pressure;BME280_temperature;BME280_humidity;BME280_pressure;Samples;Min_cycle;Max_cycle;Signal;HPM_P1;HPM_P2
2021/06/27 00:01:23;;;;;;;;;20.00;19.25;;;;;21.38;64.22;100998.88;4924538;28;46236;-67
2021/06/27 00:03:50;;;;;;;;;18.00;15.50;;;;;21.38;63.67;101001.59;4924438;28;45570;-67
2021/06/27 00:06:15;;;;;;;;;22.25;20.50;;;;;21.39;64.00;101007.91;4924788;28;45247;-67
2021/06/27 00:08:41;;;;;;;;;17.75;16.25;;;;;21.35;63.75;101012.72;4924360;28;45455;-67
2021/06/27 00:11:09;;;;;;;;;19.50;18.50;;;;;21.33;63.68;101005.63;4924575;28;45894;-67
2021/06/27 00:13:36;;;;;;;;;21.25;21.25;;;;;21.30;64.13;100998.59;4923297;28;45374;-67
2021/06/27 00:16:03;;;;;;;;;21.25;21.25;;;;;21.29;63.86;100996.84;4924477;28;45454;-67
2021/06/27 00:18:28;;;;;;;;;18.00;17.50;;;;;21.31;63.90;101000.31;4923886;28;45409;-67
2021/06/27 00:20:58;;;;;;;;;21.00;19.00;;;;;21.23;63.42;101000.91;4924323;28;45314;-66
2021/06/27 00:23:26;;;;;;;;;14.00;13.25;;;;;21.24;63.72;101008.06;4924419;28;45565;-67
2021/06/27 00:25:53;;;;;;;;;19.25;18.25;;;;;21.23;63.76;101014.47;4911565;28;45402;-67
2021/06/27 00:28:20;;;;;;;;;16.25;14.50;;;;;21.23;64.55;101013.59;4924426;28;45224;-67
2021/06/27 00:30:47;;;;;;;;;18.50;16.75;;;;;21.21;64.50;101035.41;4924057;28;46150;-67
2021/06/27 00:33:13;;;;;;;;;17.00;17.00;;;;;21.17;64.29;101035.78;4928181;28;45636;-67
2021/06/27 00:35:38;;;;;;;;;17.50;17.50;;;;;21.22;64.48;101025.44;4929241;28;45401;-67
2021/06/27 00:38:04;;;;;;;;;15.75;15.50;;;;;21.22;64.46;101026.31;4924086;28;45394;-67
2021/06/27 00:40:31;;;;;;;;;19.00;18.25;;;;;21.22;64.29;101022.72;4923525;28;45454;-67
2021/06/27 00:42:57;;;;;;;;;19.50;17.75;;;;;21.21;64.36;101026.41;4924300;28;45386;-67
2021/06/27 00:45:24;;;;;;;;;16.75;16.75;;;;;21.19;64.36;101034.66;4924127;28;45219;-67
2021/06/27 00:47:50;;;;;;;;;23.00;19.25;;;;;21.19;64.63;101026.53;4924034;28;45433;-67
2021/06/27 00:50:20;;;;;;;;;18.00;16.50;;;;;21.16;64.89;101020.44;4923647;28;46164;-67
2021/06/27 00:52:46;;;;;;;;;18.75;18.50;;;;;21.17;64.05;101025.78;4924028;28;45693;-67
2021/06/27 00:55:12;;;;;;;;;17.25;16.25;;;;;21.14;64.52;101026.00;4923781;28;45400;-67
2021/06/27 00:57:38;;;;;;;;;17.25;15.75;;;;;21.18;65.22;101034.78;4924001;28;45342;-67
2021/06/27 01:00:10;;;;;;;;;18.25;16.25;;;;;21.17;65.78;101033.06;4923582;28;46315;-67
2021/06/27 01:02:36;;;;;;;;;19.50;18.25;;;;;21.19;65.91;101033.81;4923571;28;45370;-67
2021/06/27 01:05:06;;;;;;;;;17.50;17.25;;;;;21.18;65.80;101021.19;4923822;28;45275;-67
2021/06/27 01:07:31;;;;;;;;;22.50;21.25;;;;;21.14;65.40;100998.00;4923549;28;45401;-67
2021/06/27 01:09:57;;;;;;;;;19.50;18.75;;;;;;;;4922318;28;45777;-67
2021/06/27 01:12:23;;;;;;;;;18.67;18.33;;;;;21.05;65.19;100984.09;4923726;28;45429;-67
2021/06/27 01:14:48;;;;;;;;;19.00;16.50;;;;;21.04;65.21;100984.22;4923480;28;45555;-67
2021/06/27 01:17:14;;;;;;;;;21.00;19.75;;;;;21.03;65.62;100987.91;4923278;28;45444;-67
2021/06/27 01:19:39;;;;;;;;;18.00;16.75;;;;;20.96;65.57;100976.63;4923163;28;45630;-67
2021/06/27 01:22:04;;;;;;;;;14.50;14.25;;;;;21.00;66.08;100980.88;4923492;28;45317;-67
2021/06/27 01:24:30;;;;;;;;;18.75;18.50;;;;;20.95;65.78;100982.16;4937825;28;45471;-67
2021/06/27 01:26:55;;;;;;;;;20.25;18.50;;;;;20.94;66.09;100989.44;4923397;28;45517;-67
2021/06/27 01:29:21;;;;;;;;;16.50;16.50;;;;;20.94;65.79;101003.00;4923121;28;47019;-67
2021/06/27 01:31:47;;;;;;;;;18.50;17.25;;;;;20.96;66.05;101006.47;4923264;28;45235;-67
2021/06/27 01:34:13;;;;;;;;;20.00;19.75;;;;;20.97;66.42;100991.94;4932362;28;45525;-67
2021/06/27 01:36:39;;;;;;;;;17.00;16.50;;;;;20.97;66.07;100991.06;4923352;28;45172;-67
2021/06/27 01:39:05;;;;;;;;;19.25;18.75;;;;;20.97;66.31;100980.22;4922812;28;45301;-67
2021/06/27 01:41:30;;;;;;;;;18.50;18.50;;;;;20.92;66.55;100975.13;4923147;28;45240;-67
2021/06/27 01:43:56;;;;;;;;;22.50;22.50;;;;;20.92;67.00;100981.41;4923141;28;45145;-67
2021/06/27 01:46:21;;;;;;;;;20.75;19.50;;;;;20.96;67.37;100983.91;4923393;28;45479;-67
2021/06/27 01:48:46;;;;;;;;;20.00;20.00;;;;;20.95;66.78;100979.44;4922847;28;45378;-67
2021/06/27 01:51:12;;;;;;;;;18.75;17.00;;;;;20.94;67.06;100967.72;4923006;28;45462;-67
2021/06/27 01:53:40;;;;;;;;;24.50;21.50;;;;;20.91;66.83;100955.28;4923036;28;45335;-67
2021/06/27 01:56:07;;;;;;;;;26.00;24.75;;;;;20.87;66.25;100945.59;4923016;28;45389;-67
2021/06/27 01:58:42;;;;;;;;;26.75;24.50;;;;;20.85;66.86;100941.28;4922613;28;46722;-67
2021/06/27 02:01:17;;;;;;;;;19.75;19.50;;;;;20.85;66.27;100952.13;4922911;28;45240;-67
2021/06/27 02:03:44;;;;;;;;;22.50;22.50;;;;;20.71;66.14;100943.16;4922720;28;45238;-67
2021/06/27 02:06:09;;;;;;;;;20.25;18.75;;;;;20.77;66.19;100949.97;4922797;28;45566;-67
2021/06/27 02:08:37;;;;;;;;;20.00;20.00;;;;;20.73;66.92;100937.56;4922528;28;45369;-67
2021/06/27 02:11:05;;;;;;;;;24.75;24.50;;;;;20.67;66.53;100925.34;4922656;28;45542;-67
2021/06/27 02:13:31;;;;;;;;;22.75;21.50;;;;;20.64;66.45;100913.84;4923066;28;45642;-67
2021/06/27 02:15:57;;;;;;;;;20.25;20.00;;;;;20.63;66.47;100921.13;4922739;28;45370;-67
2021/06/27 02:18:30;;;;;;;;;18.75;18.25;;;;;20.61;66.55;100919.47;4921161;28;46152;-67
2021/06/27 02:21:04;;;;;;;;;17.75;16.75;;;;;20.55;66.76;100902.66;4922321;28;45646;-67
2021/06/27 02:23:30;;;;;;;;;16.75;16.25;;;;;20.56;66.24;100903.50;4934449;28;45401;-67
2021/06/27 02:25:56;;;;;;;;;17.00;17.00;;;;;20.51;66.79;100890.31;4916189;28;45404;-67
2021/06/27 02:28:22;;;;;;;;;18.75;17.25;;;;;20.53;66.72;100892.88;4918108;28;47305;-67
2021/06/27 02:30:48;;;;;;;;;17.25;17.25;;;;;20.50;66.92;100882.28;4917477;28;45433;-67
2021/06/27 02:33:14;;;;;;;;;24.75;19.75;;;;;20.49;66.74;100875.97;4926713;28;45236;-67
2021/06/27 02:35:40;;;;;;;;;17.25;16.25;;;;;20.47;66.48;100868.94;4927335;28;45234;-67
2021/06/27 02:38:06;;;;;;;;;15.50;15.50;;;;;20.50;66.77;100866.00;4922362;28;45949;-67
2021/06/27 02:40:32;;;;;;;;;17.75;17.50;;;;;20.50;67.09;100866.00;4922094;28;45326;-66
2021/06/27 02:42:57;;;;;;;;;17.50;16.75;;;;;20.50;66.95;100869.56;4922569;28;45516;-67
2021/06/27 02:45:23;;;;;;;;;21.00;18.75;;;;;20.46;66.97;100849.06;4935823;28;45725;-67
2021/06/27 02:47:48;;;;;;;;;18.50;18.50;;;;;20.52;67.29;100855.91;4922194;28;46158;-66
2021/06/27 02:50:15;;;;;;;;;17.50;16.25;;;;;20.55;67.16;100855.69;4934816;28;45326;-67
2021/06/27 02:52:41;;;;;;;;;18.25;18.25;;;;;20.55;67.12;100851.13;4922418;28;45362;-67
2021/06/27 02:55:09;;;;;;;;;18.25;17.25;;;;;20.57;66.74;100848.31;4920874;28;45291;-67
2021/06/27 02:57:34;;;;;;;;;19.00;17.75;;;;;20.54;67.33;100856.66;4913302;28;46341;-67
2021/06/27 03:00:00;;;;;;;;;15.25;15.00;;;;;20.59;67.33;100851.75;4902863;28;45459;-67
2021/06/27 03:02:25;;;;;;;;;21.50;19.25;;;;;20.61;67.63;100854.38;4903312;28;45160;-67
2021/06/27 03:04:51;;;;;;;;;17.25;17.25;;;;;20.60;67.84;100844.47;4918427;28;45285;-67
2021/06/27 03:07:16;;;;;;;;;19.75;18.50;;;;;20.59;68.00;100849.06;4922118;28;45281;-67
2021/06/27 03:09:42;;;;;;;;;19.00;18.25;;;;;20.53;67.63;100839.53;4921875;28;45397;-67
2021/06/27 03:12:07;;;;;;;;;19.00;18.25;;;;;20.58;67.74;100849.16;4922315;28;45393;-67
2021/06/27 03:14:33;;;;;;;;;15.50;15.00;;;;;20.53;67.52;100838.66;4921916;28;45459;-67
2021/06/27 03:16:58;;;;;;;;;17.50;16.50;;;;;20.60;66.37;100855.34;4921694;28;45326;-67
2021/06/27 03:19:24;;;;;;;;;17.25;16.75;;;;;20.58;66.65;100844.63;4921683;28;45378;-67
2021/06/27 03:21:49;;;;;;;;;18.25;16.25;;;;;20.56;66.70;100835.72;4922257;28;45306;-67
2021/06/27 03:24:15;;;;;;;;;17.75;17.75;;;;;20.61;67.05;100851.66;4921638;28;45518;-67
2021/06/27 03:26:41;;;;;;;;;16.50;15.75;;;;;20.57;66.89;100845.59;4921875;28;45296;-67
2021/06/27 03:29:07;;;;;;;;;16.25;16.00;;;;;20.54;67.45;100833.13;4921777;28;45470;-67
2021/06/27 03:31:32;;;;;;;;;18.50;16.75;;;;;20.62;67.25;100845.28;4921904;28;45241;-67
2021/06/27 03:33:58;;;;;;;;;18.50;17.75;;;;;20.62;67.08;100845.28;4932078;28;45327;-67
2021/06/27 03:36:23;;;;;;;;;17.75;17.00;;;;;20.58;66.97;100824.75;4925145;28;46123;-67
2021/06/27 03:41:23;;;;;;;;;16.25;16.25;;;;;20.57;66.51;100812.19;4925016;28;45354;-67
2021/06/27 03:43:48;;;;;;;;;18.25;18.25;;;;;20.56;66.45;100811.31;4924991;28;45234;-67
2021/06/27 03:46:15;;;;;;;;;21.50;19.75;;;;;20.57;66.72;100823.03;4924992;28;45184;-67
2021/06/27 03:48:40;;;;;;;;;17.25;17.25;;;;;20.51;66.43;100836.06;4924812;28;45556;-67
2021/06/27 03:51:06;;;;;;;;;18.00;17.50;;;;;20.43;66.76;100834.88;4925220;28;45246;-67
2021/06/27 03:53:31;;;;;;;;;17.75;16.00;;;;;20.52;66.94;100848.63;4924661;28;45589;-67
2021/06/27 03:55:58;;;;;;;;;22.50;20.50;;;;;20.57;67.08;100856.44;4924801;28;45393;-67
2021/06/27 03:58:27;;;;;;;;;21.75;18.50;;;;;20.58;66.92;100868.16;4924519;28;45539;-67
2021/06/27 04:00:53;;;;;;;;;24.50;19.25;;;;;20.60;67.56;100866.19;4924896;28;45307;-67
2021/06/27 04:03:19;;;;;;;;;18.50;17.00;;;;;20.54;67.44;100851.25;4924494;28;45318;-67
2021/06/27 04:05:44;;;;;;;;;15.50;15.50;;;;;20.57;67.84;100875.44;4924621;28;46023;-67
2021/06/27 04:08:09;;;;;;;;;17.50;17.50;;;;;20.59;67.75;100857.19;4924545;28;45319;-67
2021/06/27 04:10:35;;;;;;;;;18.50;16.50;;;;;20.60;67.50;100864.38;4924609;28;45339;-67
2021/06/27 04:13:00;;;;;;;;;17.50;16.75;;;;;20.58;67.66;100854.59;4924500;28;45510;-67
2021/06/27 04:15:26;;;;;;;;;18.50;17.75;;;;;20.56;67.99;100854.69;4924597;28;46210;-66
2021/06/27 04:17:51;;;;;;;;;20.00;20.00;;;;;20.58;68.23;100863.63;4925922;28;45613;-67
2021/06/27 04:20:16;;;;;;;;;20.75;20.50;;;;;20.56;67.66;100857.41;4924565;28;45512;-67
2021/06/27 04:22:42;;;;;;;;;19.75;18.75;;;;;20.48;67.50;100848.97;4924198;28;45499;-67
2021/06/27 04:25:08;;;;;;;;;23.00;20.00;;;;;20.51;67.37;100844.22;4924317;28;46424;-67
2021/06/27 04:27:34;;;;;;;;;17.75;17.50;;;;;20.50;67.26;100847.88;4924247;28;45443;-67
2021/06/27 04:29:59;;;;;;;;;18.00;16.75;;;;;20.49;67.58;100845.28;4924515;28;45351;-67
2021/06/27 04:32:25;;;;;;;;;21.50;17.75;;;;;20.53;67.08;100850.38;4923893;28;45561;-67
2021/06/27 04:34:50;;;;;;;;;18.75;18.75;;;;;20.55;67.15;100850.28;4933315;28;46126;-67
2021/06/27 04:37:16;;;;;;;;;22.00;20.75;;;;;20.55;67.39;100859.25;4923980;28;45454;-67
2021/06/27 04:39:41;;;;;;;;;19.75;17.75;;;;;20.56;67.55;100851.97;4924224;28;45215;-67
2021/06/27 04:42:07;;;;;;;;;17.50;17.50;;;;;20.57;67.31;100850.16;4923968;28;45207;-67
2021/06/27 04:44:32;;;;;;;;;17.75;15.50;;;;;20.57;67.33;100848.31;4923868;28;45296;-67
2021/06/27 04:46:57;;;;;;;;;16.00;15.25;;;;;20.54;66.79;100849.38;4925519;28;45405;-67
2021/06/27 04:49:23;;;;;;;;;18.25;17.25;;;;;20.57;67.13;100847.44;4935008;28;45624;-67
2021/06/27 04:51:48;;;;;;;;;18.75;17.00;;;;;20.54;67.27;100838.53;4923971;28;45212;-67
2021/06/27 04:54:15;;;;;;;;;18.50;18.50;;;;;20.56;67.07;100838.44;4923827;28;45186;-67
2021/06/27 04:56:40;;;;;;;;;15.00;15.00;;;;;20.57;66.93;100850.16;4923712;28;45296;-67
2021/06/27 04:59:05;;;;;;;;;16.25;15.50;;;;;20.53;66.61;100855.81;4924004;28;45277;-67
2021/06/27 05:01:31;;;;;;;;;19.75;17.25;;;;;20.55;66.64;100852.97;4923644;28;45354;-67
2021/06/27 05:03:56;;;;;;;;;19.50;14.75;;;;;20.50;66.60;100844.31;4923906;28;46100;-67
2021/06/27 05:06:22;;;;;;;;;14.75;14.75;;;;;20.54;67.03;100852.09;4923707;28;45421;-67
2021/06/27 05:08:47;;;;;;;;;15.25;15.25;;;;;20.55;66.76;100853.84;4923686;28;45388;-67
2021/06/27 05:11:12;;;;;;;;;17.25;17.25;;;;;20.56;67.21;100854.69;4923732;28;45259;-67
2021/06/27 05:13:38;;;;;;;;;16.25;16.00;;;;;20.57;67.06;100856.44;4923601;28;45929;-67
2021/06/27 05:16:03;;;;;;;;;17.00;16.25;;;;;20.57;67.31;100850.16;4923456;28;45440;-67
2021/06/27 05:18:29;;;;;;;;;23.50;20.75;;;;;20.57;67.14;100844.75;4923224;28;45343;-66
2021/06/27 05:20:54;;;;;;;;;18.50;15.50;;;;;20.57;67.15;100848.31;4923406;28;45283;-67
2021/06/27 05:23:19;;;;;;;;;17.00;16.50;;;;;20.58;67.62;100849.16;4923558;28;46274;-67
2021/06/27 05:25:45;;;;;;;;;17.50;16.75;;;;;20.55;67.65;100834.00;4921708;28;45730;-66
2021/06/27 05:28:11;;;;;;;;;18.00;16.50;;;;;20.57;67.13;100836.59;4923555;28;45782;-69
2021/06/27 05:30:37;;;;;;;;;18.25;17.00;;;;;20.51;66.74;100827.94;4923226;28;45294;-68
2021/06/27 05:33:03;;;;;;;;;16.00;14.50;;;;;20.53;67.13;100846.78;4926029;28;46671;-69
2021/06/27 05:35:28;;;;;;;;;19.25;18.25;;;;;20.52;67.04;100854.06;4928848;28;45302;-69
2021/06/27 05:37:54;;;;;;;;;15.75;15.75;;;;;20.50;67.19;100842.47;4923032;28;45319;-69
2021/06/27 05:40:19;;;;;;;;;13.25;13.25;;;;;20.51;67.22;100846.03;4922097;28;45254;-69
2021/06/27 05:42:46;;;;;;;;;17.00;17.00;;;;;20.57;67.20;100848.31;4923076;28;45944;-69
2021/06/27 05:45:11;;;;;;;;;17.50;16.25;;;;;20.53;67.03;100846.78;4921625;28;45647;-68
2021/06/27 05:47:37;;;;;;;;;16.75;16.25;;;;;20.54;67.17;100848.53;4929896;28;45366;-68
2021/06/27 05:50:03;;;;;;;;;17.25;15.50;;;;;20.56;67.14;100846.56;4928402;28;45481;-68
2021/06/27 05:52:29;;;;;;;;;16.75;16.75;;;;;20.51;66.72;100832.47;4937659;28;48087;-68
2021/06/27 05:54:54;;;;;;;;;14.50;14.25;;;;;20.53;67.08;100833.22;4922841;28;45353;-69
2021/06/27 05:57:21;;;;;;;;;15.50;15.50;;;;;20.48;66.86;100829.97;4922519;28;45365;-69
2021/06/27 05:59:48;;;;;;;;;15.50;13.25;;;;;20.52;66.82;100842.34;4922800;28;45184;-68
2021/06/27 06:02:13;;;;;;;;;17.25;15.25;;;;;20.54;66.53;100843.09;4922498;28;46559;-68
2021/06/27 06:04:38;;;;;;;;;17.00;15.25;;;;;20.51;66.30;100837.91;4922825;28;45212;-68
2021/06/27 06:07:04;;;;;;;;;17.75;17.75;;;;;20.57;66.86;100852.88;4922540;28;45373;-69
2021/06/27 06:09:29;;;;;;;;;18.25;18.00;;;;;20.50;67.04;100844.31;4922152;28;45539;-69
2021/06/27 06:11:54;;;;;;;;;17.50;17.25;;;;;20.51;66.38;100848.75;4922947;28;45314;-68
2021/06/27 06:14:20;;;;;;;;;16.75;16.50;;;;;20.53;66.77;100850.38;4922423;28;45162;-68
2021/06/27 06:16:45;;;;;;;;;17.75;17.75;;;;;20.52;66.96;100845.06;4922564;28;45159;-69
2021/06/27 06:19:12;;;;;;;;;19.25;15.50;;;;;20.55;66.78;100858.41;4922306;28;45663;-68
2021/06/27 06:21:37;;;;;;;;;17.00;16.00;;;;;20.54;66.91;100854.81;4934252;28;47124;-68
2021/06/27 06:24:04;;;;;;;;;16.50;16.50;;;;;20.54;66.96;100854.81;4917864;28;45481;-69
2021/06/27 06:26:29;;;;;;;;;20.50;19.25;;;;;20.47;66.70;100848.09;4922742;28;45279;-69
2021/06/27 06:28:54;;;;;;;;;22.00;21.50;;;;;20.46;67.01;100851.78;4922396;28;45350;-69
2021/06/27 06:31:20;;;;;;;;;18.50;17.75;;;;;20.44;67.12;100851.03;4922381;28;45460;-69
2021/06/27 06:33:45;;;;;;;;;16.25;16.25;;;;;20.34;67.39;100845.41;4929310;28;46299;-69
2021/06/27 06:36:10;;;;;;;;;19.75;19.75;;;;;20.40;67.23;100845.94;4937286;28;45417;-69
2021/06/27 06:38:36;;;;;;;;;20.25;18.25;;;;;20.35;67.21;100836.31;4921901;28;45407;-69
2021/06/27 06:41:02;;;;;;;;;15.75;14.75;;;;;20.43;67.71;100838.47;4922455;28;45277;-69
2021/06/27 06:43:27;;;;;;;;;23.25;23.00;;;;;20.42;67.15;100844.84;4922202;28;45261;-69
2021/06/27 06:45:52;;;;;;;;;19.75;19.75;;;;;20.47;67.70;100853.53;4922400;28;45309;-69
2021/06/27 06:48:18;;;;;;;;;21.25;17.50;;;;;20.47;67.86;100853.53;4923266;28;45304;-69
2021/06/27 06:50:43;;;;;;;;;20.00;19.00;;;;;20.47;67.71;100850.81;4921999;28;45410;-69
2021/06/27 06:53:08;;;;;;;;;18.50;18.25;;;;;20.55;67.65;100863.81;4922307;28;45323;-69
2021/06/27 06:55:34;;;;;;;;;20.00;19.00;;;;;20.56;67.46;100857.41;4922233;28;45366;-69
2021/06/27 06:57:59;;;;;;;;;18.25;18.25;;;;;20.54;68.17;100851.25;4922217;28;45213;-69
2021/06/27 07:00:25;;;;;;;;;19.00;18.25;;;;;20.53;67.62;100854.91;4921999;28;45301;-69
2021/06/27 07:02:50;;;;;;;;;18.75;16.75;;;;;20.51;67.99;100846.03;4921882;28;45294;-70
2021/06/27 07:05:15;;;;;;;;;18.25;18.25;;;;;20.59;67.36;100856.34;4922257;28;45136;-69
2021/06/27 07:07:42;;;;;;;;;18.00;16.00;;;;;20.64;67.71;100860.47;4922906;28;45302;-69
2021/06/27 07:10:08;;;;;;;;;15.25;15.25;;;;;20.67;67.44;100862.09;4925125;28;47126;-69
2021/06/27 07:12:33;;;;;;;;;16.75;16.00;;;;;20.64;67.22;100857.75;4937114;28;45304;-69
2021/06/27 07:14:59;;;;;;;;;13.75;13.75;;;;;20.67;67.21;100856.69;4919000;28;45415;-68
2021/06/27 07:17:25;;;;;;;;;17.75;16.50;;;;;20.67;67.07;100854.81;4917590;28;45329;-69
2021/06/27 07:19:50;;;;;;;;;16.50;14.75;;;;;20.68;67.36;100850.25;4925062;28;46522;-69
2021/06/27 07:22:16;;;;;;;;;18.25;17.75;;;;;20.67;67.21;100845.81;4925265;28;45251;-69
2021/06/27 07:24:41;;;;;;;;;16.25;14.75;;;;;20.70;67.04;100857.31;4925244;28;45444;-69
2021/06/27 07:27:07;;;;;;;;;17.25;16.75;;;;;20.72;67.28;100858.06;4925200;28;45240;-69
2021/06/27 07:29:33;;;;;;;;;21.00;19.50;;;;;20.73;66.81;100864.34;4925029;28;45304;-69
2021/06/27 07:31:59;;;;;;;;;16.25;14.75;;;;;20.69;66.93;100850.13;4924997;28;45287;-69
2021/06/27 07:34:25;;;;;;;;;20.00;19.50;;;;;20.75;66.95;100856.09;4933398;28;45488;-68
2021/06/27 07:36:50;;;;;;;;;15.75;15.75;;;;;20.75;67.13;100851.56;4936763;28;45415;-68
2021/06/27 07:39:16;;;;;;;;;15.75;15.75;;;;;20.70;66.68;100842.91;4918161;28;45278;-67
2021/06/27 07:41:41;;;;;;;;;15.25;14.25;;;;;20.77;66.94;100849.59;4917631;28;45384;-67
2021/06/27 07:44:06;;;;;;;;;12.25;12.25;;;;;20.76;67.00;100839.72;4924984;28;45402;-67
2021/06/27 07:46:32;;;;;;;;;15.75;15.75;;;;;20.81;66.60;100834.81;4924864;28;45401;-67
2021/06/27 07:48:57;;;;;;;;;18.75;16.75;;;;;20.83;66.63;100837.41;4925904;28;45408;-67
2021/06/27 07:51:23;;;;;;;;;16.25;16.00;;;;;20.80;66.90;100835.81;4923567;28;46199;-67
2021/06/27 07:53:48;;;;;;;;;17.00;14.75;;;;;20.87;66.67;100830.78;4924770;28;45239;-67
2021/06/27 07:56:13;;;;;;;;;18.00;15.50;;;;;20.89;66.26;100836.97;4924872;28;45529;-65
2021/06/27 07:58:39;;;;;;;;;16.00;16.00;;;;;20.91;66.72;100829.56;4924386;28;45294;-65
2021/06/27 08:01:04;;;;;;;;;15.00;15.00;;;;;20.89;66.87;100823.41;4923377;28;45399;-65
2021/06/27 08:03:30;;;;;;;;;16.50;15.75;;;;;20.94;66.67;100829.34;4924467;28;45255;-65
2021/06/27 08:05:55;;;;;;;;;14.75;14.75;;;;;20.96;66.78;100826.53;4924833;28;45395;-65
2021/06/27 08:08:21;;;;;;;;;13.25;13.25;;;;;20.95;66.67;100819.34;4922527;28;48316;-65
2021/06/27 08:10:46;;;;;;;;;16.25;16.25;;;;;20.97;65.94;100823.69;4924488;28;45442;-65
2021/06/27 08:13:11;;;;;;;;;17.00;16.75;;;;;20.90;66.58;100801.59;4924480;28;45310;-67
2021/06/27 08:15:37;;;;;;;;;21.25;19.75;;;;;20.99;66.01;100816.28;4924642;28;45393;-65
2021/06/27 08:18:03;;;;;;;;;17.75;15.50;;;;;21.02;66.17;100816.06;4923841;28;45490;-65
2021/06/27 08:20:28;;;;;;;;;19.25;18.75;;;;;21.04;66.35;100824.09;4923740;28;45304;-65
2021/06/27 08:22:54;;;;;;;;;18.00;16.50;;;;;21.02;65.84;100820.66;4924487;28;45370;-65
2021/06/27 08:25:20;;;;;;;;;19.00;17.00;;;;;21.06;66.02;100822.97;4924435;28;45227;-65
2021/06/27 08:27:46;;;;;;;;;17.75;16.75;;;;;21.07;66.62;100830.16;4924223;28;45394;-65
2021/06/27 08:30:13;;;;;;;;;18.00;18.00;;;;;21.09;66.48;100836.34;4924261;28;45181;-65
2021/06/27 08:32:43;;;;;;;;;18.25;18.25;;;;;21.09;66.32;100839.03;4924021;28;45335;-65
2021/06/27 08:35:11;;;;;;;;;15.25;15.25;;;;;21.09;65.90;100840.91;4924300;28;45564;-69
2021/06/27 08:37:36;;;;;;;;;15.75;15.75;;;;;21.03;66.35;100836.81;4923993;28;46953;-69
2021/06/27 08:40:02;;;;;;;;;19.50;17.50;;;;;21.10;66.02;100850.78;4923640;28;45449;-69
2021/06/27 08:42:28;;;;;;;;;17.50;16.00;;;;;21.07;65.77;100856.44;4923967;28;45409;-69
2021/06/27 08:44:54;;;;;;;;;15.75;15.75;;;;;21.04;65.68;100849.38;4924008;28;45298;-69
2021/06/27 08:47:21;;;;;;;;;20.75;18.00;;;;;21.07;65.95;100851.00;4924775;28;46107;-67
2021/06/27 08:49:48;;;;;;;;;18.25;18.00;;;;;21.09;65.86;100854.47;4924031;28;45507;-67
2021/06/27 08:52:18;;;;;;;;;19.00;18.25;;;;;21.12;66.05;100847.94;4923881;28;45549;-68
2021/06/27 08:54:49;;;;;;;;;18.00;17.75;;;;;21.14;66.54;100857.72;4923883;28;45454;-68
2021/06/27 08:57:16;;;;;;;;;19.25;17.75;;;;;21.18;66.13;100863.75;4923629;28;45368;-68
2021/06/27 08:59:42;;;;;;;;;22.00;20.75;;;;;21.17;66.19;100862.06;4923748;28;45486;-69
2021/06/27 09:02:09;;;;;;;;;19.75;17.75;;;;;21.17;66.39;100862.91;4923514;28;45386;-69
2021/06/27 09:04:39;;;;;;;;;22.50;20.50;;;;;21.14;66.86;100851.41;4923779;28;45343;-69
2021/06/27 09:07:27;;;;;;;;;17.75;17.75;;;;;21.14;66.83;100862.28;4911277;28;46443;-69
2021/06/27 09:09:53;;;;;;;;;24.25;19.75;;;;;21.13;66.63;100866.81;4920180;28;45488;-67
2021/06/27 09:12:19;;;;;;;;;20.50;20.50;;;;;21.12;67.28;100862.38;4923666;28;45433;-69
2021/06/27 09:14:46;;;;;;;;;25.00;21.25;;;;;21.04;66.67;100857.53;4923450;28;45328;-69
2021/06/27 09:17:15;;;;;;;;;23.00;18.75;;;;;21.09;67.18;100859.91;4921280;28;45496;-65
2021/06/27 09:19:53;;;;;;;;;19.25;18.75;;;;;21.10;67.42;100865.22;4923040;28;45478;-65
2021/06/27 09:22:19;;;;;;;;;21.50;19.50;;;;;21.08;67.14;100861.75;4923373;28;45361;-65
2021/06/27 09:24:46;;;;;;;;;18.75;18.75;;;;;21.12;67.42;100864.22;4938144;28;45265;-65
2021/06/27 09:27:20;;;;;;;;;22.00;22.00;;;;;21.10;67.94;100864.34;4923145;28;46350;-65
2021/06/27 09:29:46;;;;;;;;;22.00;21.75;;;;;21.12;67.60;100864.22;4923311;28;45406;-65
2021/06/27 09:32:23;;;;;;;;;21.25;19.50;;;;;21.12;67.94;100870.53;4922172;28;45302;-65
2021/06/27 09:34:49;;;;;;;;;23.50;23.50;;;;;21.13;68.07;100874.09;4927471;28;45314;-65
2021/06/27 09:37:25;;;;;;;;;25.25;25.25;;;;;21.12;67.99;100875.06;4923333;28;46049;-65
2021/06/27 09:40:03;;;;;;;;;26.00;24.00;;;;;21.07;68.16;100865.44;4910216;28;45228;-65
2021/06/27 09:42:30;;;;;;;;;28.50;24.50;;;;;21.14;68.26;100870.41;4923314;28;45382;-65
2021/06/27 09:45:05;;;;;;;;;27.75;27.75;;;;;21.14;68.38;100879.41;4922930;28;45606;-65
2021/06/27 09:47:32;;;;;;;;;30.25;27.50;;;;;21.14;68.04;100879.41;4929060;28;46158;-65
2021/06/27 09:49:57;;;;;;;;;25.50;23.25;;;;;21.14;68.85;100878.56;4924383;28;45411;-65
2021/06/27 09:52:38;;;;;;;;;23.00;21.00;;;;;21.13;68.93;100876.81;4923311;28;45377;-65
2021/06/27 09:55:13;;;;;;;;;29.50;28.00;;;;;21.16;68.63;100896.44;4910850;28;45315;-65
2021/06/27 09:57:40;;;;;;;;;22.50;21.25;;;;;21.17;68.36;100889.19;4922881;28;45385;-65
2021/06/27 10:00:30;;;;;;;;;21.25;21.25;;;;;21.21;69.44;100901.53;4922878;28;45317;-65
2021/06/27 10:03:00;;;;;;;;;21.25;20.50;;;;;21.19;68.87;100892.66;4922250;28;45491;-66
2021/06/27 10:05:25;;;;;;;;;24.50;21.75;;;;;21.23;68.99;100905.00;4923021;28;45377;-65
2021/06/27 10:07:51;;;;;;;;;23.75;21.50;;;;;21.24;68.96;100906.75;4922468;28;46147;-65
2021/06/27 10:10:19;;;;;;;;;26.00;25.25;;;;;21.27;69.61;100901.09;4922603;28;45436;-65
2021/06/27 10:12:45;;;;;;;;;22.50;21.75;;;;;21.25;69.19;100906.63;4922895;28;45251;-65
2021/06/27 10:15:14;;;;;;;;;22.25;22.00;;;;;21.26;69.44;100905.63;4922681;28;45240;-65
2021/06/27 10:17:40;;;;;;;;;23.50;23.50;;;;;21.32;69.67;100912.47;4908666;28;47954;-65
2021/06/27 10:20:06;;;;;;;;;24.00;23.25;;;;;21.31;69.55;100913.44;4922303;28;45642;-65
2021/06/27 10:22:32;;;;;;;;;24.25;23.75;;;;;21.34;69.08;100915.06;4934354;28;45474;-65
2021/06/27 10:24:57;;;;;;;;;27.50;24.75;;;;;21.36;69.44;100910.38;4921484;28;45450;-65
2021/06/27 10:27:27;;;;;;;;;29.25;23.25;;;;;21.35;69.68;100914.06;4922587;28;45224;-65
2021/06/27 10:29:53;;;;;;;;;24.75;22.25;;;;;21.42;69.41;100921.66;4910179;28;47222;-65
2021/06/27 10:32:20;;;;;;;;;23.75;23.75;;;;;21.44;69.44;100924.25;4922288;28;45338;-65
2021/06/27 10:34:46;;;;;;;;;20.50;19.25;;;;;21.45;69.66;100932.28;4932088;28;45306;-65
2021/06/27 10:37:19;;;;;;;;;20.25;20.25;;;;;21.46;68.76;100934.00;4922371;28;45265;-65
2021/06/27 10:39:56;;;;;;;;;18.75;17.50;;;;;21.44;69.07;100927.81;4922172;28;45367;-66
2021/06/27 10:42:50;;;;;;;;;18.25;18.00;;;;;21.46;68.64;100933.16;4922010;28;45546;-65
2021/06/27 10:45:22;;;;;;;;;19.75;17.25;;;;;21.41;68.13;100928.06;4922150;28;45571;-65
2021/06/27 10:47:48;;;;;;;;;18.00;16.50;;;;;21.43;68.64;100930.66;4922503;28;45406;-65
2021/06/27 10:50:15;;;;;;;;;16.75;16.50;;;;;21.40;68.31;100923.63;4922065;28;45327;-65
2021/06/27 10:52:49;;;;;;;;;21.50;18.25;;;;;21.45;68.76;100936.84;4933903;28;45263;-65
2021/06/27 10:55:39;;;;;;;;;20.25;18.75;;;;;21.42;69.12;100943.38;4906186;28;45470;-65
2021/06/27 10:58:06;;;;;;;;;22.25;20.00;;;;;21.42;69.38;100937.94;4922220;28;46070;-65
2021/06/27 11:00:53;;;;;;;;;20.00;18.00;;;;;21.42;69.19;100942.53;4922060;28;45517;-65
2021/06/27 11:03:34;;;;;;;;;15.75;15.75;;;;;21.40;68.96;100934.47;4921943;28;45374;-65
2021/06/27 11:06:02;;;;;;;;;19.00;18.25;;;;;21.40;68.40;100929.06;4922144;28;45288;-65
2021/06/27 11:08:42;;;;;;;;;19.00;16.75;;;;;21.44;68.84;100935.97;4930587;28;47086;-65
2021/06/27 11:11:14;;;;;;;;;24.25;21.00;;;;;21.43;69.21;100931.53;4915519;28;45184;-65